sensor_id;sensor_type;location;lat;lon;timestamp;P1;durP1;ratioP1;P2;durP2;ratioP2
21120;SDS011;12519;43.318;21.898;2023-07-20T00:02:51;4.0;;;4.0;;
21120;SDS011;12519;43.318;21.898;2023-07-20T00:07:27;3.0;;;3.0;;
21120;SDS011;12519;43.318;21.898;2023-07-20T00:12:05;3.0;;;3.0;;
21120;SDS011;12519;43.318;21.898;2023-07-20T00:16:42;4.0;;;4.0;;
21120;SDS011;12519;43.318;21.898;2023-07-20T00:21:19;4.0;;;4.0;;
21120;SDS011;12519;43.318;21.898;2023-07-20T00:25:55;5.0;;;4.0;;
21120;SDS011;12519;43.318;21.898;2023-07-20T00:30:31;5.0;;;4.0;;
21120;SDS011;12519;43.318;21.898;2023-07-20T00:35:08;5.0;;;4.0;;
21120;SDS011;12519;43.318;21.898;2023-07-20T00:39:45;5.0;;;4.0;;
21120;SDS011;12519;43.318;21.898;2023-07-20T00:44:21;5.0;;;4.0;;
21120;SDS011;12519;43.318;21.898;2023-07-20T00:48:57;5.0;;;4.0;;
21120;SDS011;12519;43.318;21.898;2023-07-20T00:53:35;5.0;;;4.0;;
21120;SDS011;12519;43.318;21.898;2023-07-20T00:58:12;5.0;;;4.0;;
21120;SDS011;12519;43.318;21.898;2023-07-20T01:02:51;5.0;;;4.0;;
21120;SDS011;12519;43.318;21.898;2023-07-20T01:07:39;5.0;;;4.0;;
21120;SDS011;12519;43.318;21.898;2023-07-20T01:12:46;5.0;;;4.0;;
21120;SDS011;12519;43.318;21.898;2023-07-20T01:17:27;6.0;;;4.0;;
21120;SDS011;12519;43.318;21.898;2023-07-20T01:22:51;6.0;;;4.0;;
21120;SDS011;12519;43.318;21.898;2023-07-20T01:29:22;8.0;;;5.0;;
21120;SDS011;12519;43.318;21.898;2023-07-20T01:34:26;7.0;;;4.0;;
21120;SDS011;12519;43.318;21.898;2023-07-20T01:39:08;7.0;;;4.0;;
21120;SDS011;12519;43.318;21.898;2023-07-20T01:43:46;6.0;;;4.0;;
21120;SDS011;12519;43.318;21.898;2023-07-20T01:48:23;6.0;;;4.0;;
21120;SDS011;12519;43.318;21.898;2023-07-20T01:52:59;6.0;;;4.0;;
21120;SDS011;12519;43.318;21.898;2023-07-20T01:57:37;6.0;;;5.0;;
21120;SDS011;12519;43.318;21.898;2023-07-20T02:02:14;6.0;;;5.0;;
21120;SDS011;12519;43.318;21.898;2023-07-20T02:06:50;7.0;;;6.0;;
21120;SDS011;12519;43.318;21.898;2023-07-20T02:11:27;7.0;;;6.0;;
21120;SDS011;12519;43.318;21.898;2023-07-20T02:16:04;7.0;;;5.0;;
21120;SDS011;12519;43.318;21.898;2023-07-20T02:20:41;7.0;;;5.0;;
21120;SDS011;12519;43.318;21.898;2023-07-20T02:25:17;7.0;;;4.0;;
21120;SDS011;12519;43.318;21.898;2023-07-20T02:29:54;7.0;;;4.0;;
21120;SDS011;12519;43.318;21.898;2023-07-20T02:34:29;6.0;;;4.0;;
21120;SDS011;12519;43.318;21.898;2023-07-20T02:39:05;6.0;;;4.0;;
21120;SDS011;12519;43.318;21.898;2023-07-20T02:43:41;5.0;;;4.0;;
21120;SDS011;12519;43.318;21.898;2023-07-20T02:48:17;5.0;;;4.0;;
21120;SDS011;12519;43.318;21.898;2023-07-20T02:52:53;5.0;;;4.0;;
21120;SDS011;12519;43.318;21.898;2023-07-20T02:57:29;6.0;;;4.0;;
21120;SDS011;12519;43.318;21.898;2023-07-20T03:02:05;6.0;;;4.0;;
21120;SDS011;12519;43.318;21.898;2023-07-20T03:06:41;7.0;;;5.0;;
21120;SDS011;12519;43.318;21.898;2023-07-20T03:11:19;7.0;;;5.0;;
21120;SDS011;12519;43.318;21.898;2023-07-20T03:15:56;6.0;;;5.0;;
21120;SDS011;12519;43.318;21.898;2023-07-20T03:20:35;6.0;;;5.0;;
21120;SDS011;12519;43.318;21.898;2023-07-20T03:25:12;6.0;;;5.0;;
21120;SDS011;12519;43.318;21.898;2023-07-20T03:29:49;6.0;;;5.0;;
21120;SDS011;12519;43.318;21.898;2023-07-20T03:34:25;6.0;;;5.0;;
21120;SDS011;12519;43.318;21.898;2023-07-20T03:39:02;6.0;;;5.0;;
21120;SDS011;12519;43.318;21.898;2023-07-20T03:43:39;6.0;;;5.0;;
21120;SDS011;12519;43.318;21.898;2023-07-20T03:48:16;5.0;;;5.0;;
21120;SDS011;12519;43.318;21.898;2023-07-20T03:52:58;5.0;;;5.0;;
21120;SDS011;12519;43.318;21.898;2023-07-20T03:57:34;8.0;;;6.0;;
21120;SDS011;12519;43.318;21.898;2023-07-20T04:02:11;8.0;;;6.0;;
21120;SDS011;12519;43.318;21.898;2023-07-20T04:06:48;10.0;;;8.0;;
21120;SDS011;12519;43.318;21.898;2023-07-20T04:11:24;10.0;;;8.0;;
21120;SDS011;12519;43.318;21.898;2023-07-20T04:16:00;10.0;;;8.0;;
21120;SDS011;12519;43.318;21.898;2023-07-20T04:20:37;10.0;;;8.0;;
21120;SDS011;12519;43.318;21.898;2023-07-20T04:25:14;11.0;;;9.0;;
21120;SDS011;12519;43.318;21.898;2023-07-20T04:29:51;11.0;;;9.0;;
21120;SDS011;12519;43.318;21.898;2023-07-20T04:34:29;12.0;;;9.0;;
21120;SDS011;12519;43.318;21.898;2023-07-20T04:39:06;12.0;;;9.0;;
21120;SDS011;12519;43.318;21.898;2023-07-20T04:43:44;12.0;;;9.0;;
21120;SDS011;12519;43.318;21.898;2023-07-20T04:48:20;12.0;;;9.0;;
21120;SDS011;12519;43.318;21.898;2023-07-20T04:52:57;12.0;;;9.0;;
21120;SDS011;12519;43.318;21.898;2023-07-20T04:57:33;18.0;;;12.0;;
21120;SDS011;12519;43.318;21.898;2023-07-20T05:02:09;18.0;;;12.0;;
21120;SDS011;12519;43.318;21.898;2023-07-20T05:06:46;24.0;;;15.0;;
21120;SDS011;12519;43.318;21.898;2023-07-20T05:11:22;24.0;;;15.0;;
21120;SDS011;12519;43.318;21.898;2023-07-20T05:15:58;19.0;;;14.0;;
21120;SDS011;12519;43.318;21.898;2023-07-20T05:20:35;19.0;;;14.0;;
21120;SDS011;12519;43.318;21.898;2023-07-20T05:25:11;14.0;;;12.0;;
21120;SDS011;12519;43.318;21.898;2023-07-20T05:29:48;14.0;;;12.0;;
21120;SDS011;12519;43.318;21.898;2023-07-20T05:34:24;11.0;;;10.0;;
21120;SDS011;12519;43.318;21.898;2023-07-20T05:39:00;11.0;;;10.0;;
21120;SDS011;12519;43.318;21.898;2023-07-20T05:43:36;11.0;;;10.0;;
21120;SDS011;12519;43.318;21.898;2023-07-20T05:48:13;8.0;;;7.0;;
21120;SDS011;12519;43.318;21.898;2023-07-20T05:52:53;8.0;;;7.0;;
21120;SDS011;12519;43.318;21.898;2023-07-20T05:57:30;9.0;;;7.0;;
21120;SDS011;12519;43.318;21.898;2023-07-20T06:02:07;9.0;;;7.0;;
21120;SDS011;12519;43.318;21.898;2023-07-20T06:06:43;10.0;;;7.0;;
21120;SDS011;12519;43.318;21.898;2023-07-20T06:11:20;10.0;;;7.0;;
21120;SDS011;12519;43.318;21.898;2023-07-20T06:15:56;8.0;;;6.0;;
21120;SDS011;12519;43.318;21.898;2023-07-20T06:20:33;8.0;;;6.0;;
21120;SDS011;12519;43.318;21.898;2023-07-20T06:25:10;6.0;;;5.0;;
21120;SDS011;12519;43.318;21.898;2023-07-20T06:29:46;6.0;;;5.0;;
21120;SDS011;12519;43.318;21.898;2023-07-20T06:34:23;7.0;;;5.0;;
21120;SDS011;12519;43.318;21.898;2023-07-20T06:38:59;7.0;;;5.0;;
21120;SDS011;12519;43.318;21.898;2023-07-20T06:43:35;7.0;;;5.0;;
21120;SDS011;12519;43.318;21.898;2023-07-20T06:48:12;8.0;;;5.0;;
21120;SDS011;12519;43.318;21.898;2023-07-20T06:52:48;8.0;;;5.0;;
21120;SDS011;12519;43.318;21.898;2023-07-20T06:57:25;8.0;;;5.0;;
21120;SDS011;12519;43.318;21.898;2023-07-20T07:02:02;8.0;;;5.0;;
21120;SDS011;12519;43.318;21.898;2023-07-20T07:06:41;7.0;;;5.0;;
21120;SDS011;12519;43.318;21.898;2023-07-20T07:11:17;7.0;;;5.0;;
21120;SDS011;12519;43.318;21.898;2023-07-20T07:15:54;8.0;;;5.0;;
21120;SDS011;12519;43.318;21.898;2023-07-20T07:20:31;8.0;;;5.0;;
21120;SDS011;12519;43.318;21.898;2023-07-20T07:25:09;8.0;;;5.0;;
21120;SDS011;12519;43.318;21.898;2023-07-20T07:29:47;8.0;;;5.0;;
21120;SDS011;12519;43.318;21.898;2023-07-20T07:34:23;6.0;;;4.0;;
21120;SDS011;12519;43.318;21.898;2023-07-20T07:39:00;6.0;;;4.0;;
21120;SDS011;12519;43.318;21.898;2023-07-20T07:43:36;6.0;;;4.0;;
21120;SDS011;12519;43.318;21.898;2023-07-20T07:48:13;5.0;;;4.0;;
21120;SDS011;12519;43.318;21.898;2023-07-20T07:52:49;5.0;;;4.0;;
21120;SDS011;12519;43.318;21.898;2023-07-20T07:57:26;5.0;;;4.0;;
21120;SDS011;12519;43.318;21.898;2023-07-20T08:02:04;5.0;;;4.0;;
21120;SDS011;12519;43.318;21.898;2023-07-20T08:06:41;5.0;;;4.0;;
21120;SDS011;12519;43.318;21.898;2023-07-20T08:11:18;5.0;;;4.0;;
21120;SDS011;12519;43.318;21.898;2023-07-20T08:15:54;7.0;;;5.0;;
21120;SDS011;12519;43.318;21.898;2023-07-20T08:20:30;7.0;;;5.0;;
21120;SDS011;12519;43.318;21.898;2023-07-20T08:25:08;9.0;;;6.0;;
21120;SDS011;12519;43.318;21.898;2023-07-20T08:29:45;9.0;;;6.0;;
21120;SDS011;12519;43.318;21.898;2023-07-20T08:34:22;109.0;;;97.0;;
21120;SDS011;12519;43.318;21.898;2023-07-20T08:38:59;109.0;;;97.0;;
21120;SDS011;12519;43.318;21.898;2023-07-20T08:43:40;109.0;;;97.0;;
21120;SDS011;12519;43.318;21.898;2023-07-20T08:48:24;209.0;;;188.0;;
21120;SDS011;12519;43.318;21.898;2023-07-20T08:53:06;209.0;;;188.0;;
21120;SDS011;12519;43.318;21.898;2023-07-20T08:57:50;109.0;;;98.0;;
21120;SDS011;12519;43.318;21.898;2023-07-20T09:02:39;109.0;;;98.0;;
21120;SDS011;12519;43.318;21.898;2023-07-20T09:07:21;9.0;;;7.0;;
21120;SDS011;12519;43.318;21.898;2023-07-20T09:12:00;9.0;;;7.0;;
21120;SDS011;12519;43.318;21.898;2023-07-20T09:16:47;12.0;;;6.0;;
21120;SDS011;12519;43.318;21.898;2023-07-20T09:21:29;12.0;;;6.0;;
21120;SDS011;12519;43.318;21.898;2023-07-20T09:26:10;16.0;;;6.0;;
21120;SDS011;12519;43.318;21.898;2023-07-20T09:30:49;16.0;;;6.0;;
21120;SDS011;12519;43.318;21.898;2023-07-20T09:35:26;12.0;;;6.0;;
21120;SDS011;12519;43.318;21.898;2023-07-20T09:40:07;12.0;;;6.0;;
21120;SDS011;12519;43.318;21.898;2023-07-20T09:44:45;8.0;;;6.0;;
21120;SDS011;12519;43.318;21.898;2023-07-20T09:49:23;8.0;;;6.0;;
21120;SDS011;12519;43.318;21.898;2023-07-20T09:54:01;8.0;;;6.0;;
21120;SDS011;12519;43.318;21.898;2023-07-20T09:58:43;42.0;;;38.0;;
21120;SDS011;12519;43.318;21.898;2023-07-20T10:03:29;42.0;;;38.0;;
21120;SDS011;12519;43.318;21.898;2023-07-20T10:08:16;77.0;;;70.0;;
21120;SDS011;12519;43.318;21.898;2023-07-20T10:13:01;77.0;;;70.0;;
21120;SDS011;12519;43.318;21.898;2023-07-20T10:17:57;44.0;;;38.0;;
21120;SDS011;12519;43.318;21.898;2023-07-20T10:22:57;44.0;;;38.0;;
21120;SDS011;12519;43.318;21.898;2023-07-20T10:27:37;10.0;;;6.0;;
21120;SDS011;12519;43.318;21.898;2023-07-20T10:32:17;10.0;;;6.0;;
21120;SDS011;12519;43.318;21.898;2023-07-20T10:36:55;8.0;;;6.0;;
21120;SDS011;12519;43.318;21.898;2023-07-20T10:41:35;8.0;;;6.0;;
21120;SDS011;12519;43.318;21.898;2023-07-20T10:46:34;6.0;;;5.0;;
21120;SDS011;12519;43.318;21.898;2023-07-20T10:51:21;6.0;;;5.0;;
21120;SDS011;12519;43.318;21.898;2023-07-20T10:56:07;7.0;;;6.0;;
21120;SDS011;12519;43.318;21.898;2023-07-20T11:00:57;7.0;;;6.0;;
21120;SDS011;12519;43.318;21.898;2023-07-20T11:05:39;8.0;;;7.0;;
21120;SDS011;12519;43.318;21.898;2023-07-20T11:10:17;8.0;;;7.0;;
21120;SDS011;12519;43.318;21.898;2023-07-20T11:14:56;14.0;;;12.0;;
21120;SDS011;12519;43.318;21.898;2023-07-20T11:19:34;14.0;;;12.0;;
21120;SDS011;12519;43.318;21.898;2023-07-20T11:24:10;14.0;;;12.0;;
21120;SDS011;12519;43.318;21.898;2023-07-20T11:28:49;19.0;;;17.0;;
21120;SDS011;12519;43.318;21.898;2023-07-20T11:33:27;19.0;;;17.0;;
21120;SDS011;12519;43.318;21.898;2023-07-20T11:38:03;14.0;;;12.0;;
21120;SDS011;12519;43.318;21.898;2023-07-20T11:42:40;14.0;;;12.0;;
21120;SDS011;12519;43.318;21.898;2023-07-20T11:47:16;9.0;;;8.0;;
21120;SDS011;12519;43.318;21.898;2023-07-20T11:51:53;9.0;;;8.0;;
21120;SDS011;12519;43.318;21.898;2023-07-20T11:56:32;7.0;;;6.0;;
21120;SDS011;12519;43.318;21.898;2023-07-20T12:01:09;7.0;;;6.0;;
21120;SDS011;12519;43.318;21.898;2023-07-20T12:05:47;5.0;;;5.0;;
21120;SDS011;12519;43.318;21.898;2023-07-20T12:10:26;5.0;;;5.0;;
21120;SDS011;12519;43.318;21.898;2023-07-20T12:15:22;8.0;;;6.0;;
21120;SDS011;12519;43.318;21.898;2023-07-20T12:20:02;8.0;;;6.0;;
21120;SDS011;12519;43.318;21.898;2023-07-20T12:24:43;8.0;;;6.0;;
21120;SDS011;12519;43.318;21.898;2023-07-20T12:29:20;10.0;;;6.0;;
21120;SDS011;12519;43.318;21.898;2023-07-20T12:33:57;10.0;;;6.0;;
21120;SDS011;12519;43.318;21.898;2023-07-20T12:38:34;10.0;;;6.0;;
21120;SDS011;12519;43.318;21.898;2023-07-20T12:43:11;10.0;;;6.0;;
21120;SDS011;12519;43.318;21.898;2023-07-20T12:47:47;9.0;;;7.0;;
21120;SDS011;12519;43.318;21.898;2023-07-20T12:52:24;9.0;;;7.0;;
21120;SDS011;12519;43.318;21.898;2023-07-20T12:57:01;8.0;;;6.0;;
21120;SDS011;12519;43.318;21.898;2023-07-20T13:01:38;8.0;;;6.0;;
21120;SDS011;12519;43.318;21.898;2023-07-20T13:06:15;7.0;;;6.0;;
21120;SDS011;12519;43.318;21.898;2023-07-20T13:10:51;7.0;;;6.0;;
21120;SDS011;12519;43.318;21.898;2023-07-20T13:15:30;7.0;;;6.0;;
21120;SDS011;12519;43.318;21.898;2023-07-20T13:20:18;7.0;;;6.0;;
21120;SDS011;12519;43.318;21.898;2023-07-20T13:24:54;7.0;;;6.0;;
21120;SDS011;12519;43.318;21.898;2023-07-20T13:29:30;7.0;;;6.0;;
21120;SDS011;12519;43.318;21.898;2023-07-20T13:34:06;7.0;;;6.0;;
21120;SDS011;12519;43.318;21.898;2023-07-20T13:38:42;8.0;;;8.0;;
21120;SDS011;12519;43.318;21.898;2023-07-20T13:43:19;8.0;;;8.0;;
21120;SDS011;12519;43.318;21.898;2023-07-20T13:47:55;10.0;;;9.0;;
21120;SDS011;12519;43.318;21.898;2023-07-20T13:52:32;10.0;;;9.0;;
21120;SDS011;12519;43.318;21.898;2023-07-20T13:57:08;10.0;;;8.0;;
21120;SDS011;12519;43.318;21.898;2023-07-20T14:01:44;10.0;;;8.0;;
21120;SDS011;12519;43.318;21.898;2023-07-20T14:06:21;9.0;;;8.0;;
21120;SDS011;12519;43.318;21.898;2023-07-20T14:10:58;9.0;;;8.0;;
21120;SDS011;12519;43.318;21.898;2023-07-20T14:15:35;8.0;;;8.0;;
21120;SDS011;12519;43.318;21.898;2023-07-20T14:20:12;8.0;;;8.0;;
21120;SDS011;12519;43.318;21.898;2023-07-20T14:24:48;8.0;;;8.0;;
21120;SDS011;12519;43.318;21.898;2023-07-20T14:29:25;8.0;;;8.0;;
21120;SDS011;12519;43.318;21.898;2023-07-20T14:34:01;8.0;;;8.0;;
21120;SDS011;12519;43.318;21.898;2023-07-20T14:38:37;9.0;;;8.0;;
21120;SDS011;12519;43.318;21.898;2023-07-20T14:43:13;9.0;;;8.0;;
21120;SDS011;12519;43.318;21.898;2023-07-20T14:47:50;10.0;;;9.0;;
21120;SDS011;12519;43.318;21.898;2023-07-20T14:52:26;10.0;;;9.0;;
21120;SDS011;12519;43.318;21.898;2023-07-20T14:57:03;10.0;;;8.0;;
21120;SDS011;12519;43.318;21.898;2023-07-20T15:01:41;10.0;;;8.0;;
21120;SDS011;12519;43.318;21.898;2023-07-20T15:06:17;9.0;;;8.0;;
21120;SDS011;12519;43.318;21.898;2023-07-20T15:10:54;9.0;;;8.0;;
21120;SDS011;12519;43.318;21.898;2023-07-20T15:15:31;10.0;;;9.0;;
21120;SDS011;12519;43.318;21.898;2023-07-20T15:20:10;10.0;;;9.0;;
21120;SDS011;12519;43.318;21.898;2023-07-20T15:24:50;10.0;;;9.0;;
21120;SDS011;12519;43.318;21.898;2023-07-20T15:29:27;11.0;;;10.0;;
21120;SDS011;12519;43.318;21.898;2023-07-20T15:34:03;11.0;;;10.0;;
21120;SDS011;12519;43.318;21.898;2023-07-20T15:38:40;12.0;;;10.0;;
21120;SDS011;12519;43.318;21.898;2023-07-20T15:43:17;12.0;;;10.0;;
21120;SDS011;12519;43.318;21.898;2023-07-20T15:47:53;12.0;;;10.0;;
21120;SDS011;12519;43.318;21.898;2023-07-20T15:52:30;12.0;;;10.0;;
21120;SDS011;12519;43.318;21.898;2023-07-20T15:57:06;10.0;;;9.0;;
21120;SDS011;12519;43.318;21.898;2023-07-20T16:01:43;10.0;;;9.0;;
21120;SDS011;12519;43.318;21.898;2023-07-20T16:06:20;8.0;;;8.0;;
21120;SDS011;12519;43.318;21.898;2023-07-20T16:10:56;8.0;;;8.0;;
21120;SDS011;12519;43.318;21.898;2023-07-20T16:15:32;9.0;;;8.0;;
21120;SDS011;12519;43.318;21.898;2023-07-20T16:20:10;9.0;;;8.0;;
21120;SDS011;12519;43.318;21.898;2023-07-20T16:24:47;9.0;;;8.0;;
21120;SDS011;12519;43.318;21.898;2023-07-20T16:29:23;10.0;;;9.0;;
21120;SDS011;12519;43.318;21.898;2023-07-20T16:34:00;10.0;;;9.0;;
21120;SDS011;12519;43.318;21.898;2023-07-20T16:38:37;10.0;;;8.0;;
21120;SDS011;12519;43.318;21.898;2023-07-20T16:43:15;10.0;;;8.0;;
21120;SDS011;12519;43.318;21.898;2023-07-20T16:47:52;9.0;;;8.0;;
21120;SDS011;12519;43.318;21.898;2023-07-20T16:52:29;9.0;;;8.0;;
21120;SDS011;12519;43.318;21.898;2023-07-20T16:57:07;10.0;;;8.0;;
21120;SDS011;12519;43.318;21.898;2023-07-20T17:01:44;10.0;;;8.0;;
21120;SDS011;12519;43.318;21.898;2023-07-20T17:06:20;10.0;;;9.0;;
21120;SDS011;12519;43.318;21.898;2023-07-20T17:10:57;10.0;;;9.0;;
21120;SDS011;12519;43.318;21.898;2023-07-20T17:15:34;10.0;;;10.0;;
21120;SDS011;12519;43.318;21.898;2023-07-20T17:20:10;10.0;;;10.0;;
21120;SDS011;12519;43.318;21.898;2023-07-20T17:24:47;10.0;;;10.0;;
21120;SDS011;12519;43.318;21.898;2023-07-20T17:29:23;11.0;;;10.0;;
21120;SDS011;12519;43.318;21.898;2023-07-20T17:33:59;11.0;;;10.0;;
21120;SDS011;12519;43.318;21.898;2023-07-20T17:38:38;11.0;;;10.0;;
21120;SDS011;12519;43.318;21.898;2023-07-20T17:43:14;11.0;;;10.0;;
21120;SDS011;12519;43.318;21.898;2023-07-20T17:47:51;11.0;;;9.0;;
21120;SDS011;12519;43.318;21.898;2023-07-20T17:52:28;11.0;;;9.0;;
21120;SDS011;12519;43.318;21.898;2023-07-20T17:57:05;10.0;;;10.0;;
21120;SDS011;12519;43.318;21.898;2023-07-20T18:01:42;10.0;;;10.0;;
21120;SDS011;12519;43.318;21.898;2023-07-20T18:06:19;10.0;;;10.0;;
21120;SDS011;12519;43.318;21.898;2023-07-20T18:11:02;10.0;;;10.0;;
21120;SDS011;12519;43.318;21.898;2023-07-20T18:15:40;20.0;;;20.0;;
21120;SDS011;12519;43.318;21.898;2023-07-20T18:20:16;20.0;;;20.0;;
21120;SDS011;12519;43.318;21.898;2023-07-20T18:24:54;20.0;;;20.0;;
21120;SDS011;12519;43.318;21.898;2023-07-20T18:29:30;31.0;;;29.0;;
21120;SDS011;12519;43.318;21.898;2023-07-20T18:34:06;31.0;;;29.0;;
21120;SDS011;12519;43.318;21.898;2023-07-20T18:38:43;22.0;;;20.0;;
21120;SDS011;12519;43.318;21.898;2023-07-20T18:43:19;22.0;;;20.0;;
21120;SDS011;12519;43.318;21.898;2023-07-20T18:47:55;12.0;;;11.0;;
21120;SDS011;12519;43.318;21.898;2023-07-20T18:52:31;12.0;;;11.0;;
21120;SDS011;12519;43.318;21.898;2023-07-20T18:57:08;16.0;;;13.0;;
21120;SDS011;12519;43.318;21.898;2023-07-20T19:01:44;16.0;;;13.0;;
21120;SDS011;12519;43.318;21.898;2023-07-20T19:06:20;20.0;;;15.0;;
21120;SDS011;12519;43.318;21.898;2023-07-20T19:10:59;20.0;;;15.0;;
21120;SDS011;12519;43.318;21.898;2023-07-20T19:15:37;20.0;;;15.0;;
21120;SDS011;12519;43.318;21.898;2023-07-20T19:20:14;18.0;;;15.0;;
21120;SDS011;12519;43.318;21.898;2023-07-20T19:24:51;18.0;;;15.0;;
21120;SDS011;12519;43.318;21.898;2023-07-20T19:29:28;16.0;;;15.0;;
21120;SDS011;12519;43.318;21.898;2023-07-20T19:34:04;16.0;;;15.0;;
21120;SDS011;12519;43.318;21.898;2023-07-20T19:38:40;16.0;;;14.0;;
21120;SDS011;12519;43.318;21.898;2023-07-20T19:43:17;16.0;;;14.0;;
21120;SDS011;12519;43.318;21.898;2023-07-20T19:47:54;15.0;;;13.0;;
21120;SDS011;12519;43.318;21.898;2023-07-20T19:52:30;15.0;;;13.0;;
21120;SDS011;12519;43.318;21.898;2023-07-20T19:57:07;14.0;;;13.0;;
21120;SDS011;12519;43.318;21.898;2023-07-20T20:01:43;14.0;;;13.0;;
21120;SDS011;12519;43.318;21.898;2023-07-20T20:06:20;14.0;;;13.0;;
21120;SDS011;12519;43.318;21.898;2023-07-20T20:10:56;14.0;;;13.0;;
21120;SDS011;12519;43.318;21.898;2023-07-20T20:15:32;14.0;;;13.0;;
21120;SDS011;12519;43.318;21.898;2023-07-20T20:20:10;15.0;;;13.0;;
21120;SDS011;12519;43.318;21.898;2023-07-20T20:24:47;15.0;;;13.0;;
21120;SDS011;12519;43.318;21.898;2023-07-20T20:29:24;16.0;;;13.0;;
21120;SDS011;12519;43.318;21.898;2023-07-20T20:34:00;16.0;;;13.0;;
21120;SDS011;12519;43.318;21.898;2023-07-20T20:38:37;14.0;;;12.0;;
21120;SDS011;12519;43.318;21.898;2023-07-20T20:43:14;14.0;;;12.0;;
21120;SDS011;12519;43.318;21.898;2023-07-20T20:47:51;11.0;;;10.0;;
21120;SDS011;12519;43.318;21.898;2023-07-20T20:52:27;11.0;;;10.0;;
21120;SDS011;12519;43.318;21.898;2023-07-20T20:57:04;11.0;;;10.0;;
21120;SDS011;12519;43.318;21.898;2023-07-20T21:01:41;11.0;;;10.0;;
21120;SDS011;12519;43.318;21.898;2023-07-20T21:06:18;11.0;;;10.0;;
21120;SDS011;12519;43.318;21.898;2023-07-20T21:10:57;11.0;;;10.0;;
21120;SDS011;12519;43.318;21.898;2023-07-20T21:15:34;11.0;;;10.0;;
21120;SDS011;12519;43.318;21.898;2023-07-20T21:20:11;12.0;;;10.0;;
21120;SDS011;12519;43.318;21.898;2023-07-20T21:24:47;12.0;;;10.0;;
21120;SDS011;12519;43.318;21.898;2023-07-20T21:29:23;12.0;;;11.0;;
21120;SDS011;12519;43.318;21.898;2023-07-20T21:34:00;12.0;;;11.0;;
21120;SDS011;12519;43.318;21.898;2023-07-20T21:38:36;12.0;;;10.0;;
21120;SDS011;12519;43.318;21.898;2023-07-20T21:43:12;12.0;;;10.0;;
21120;SDS011;12519;43.318;21.898;2023-07-20T21:47:49;11.0;;;10.0;;
21120;SDS011;12519;43.318;21.898;2023-07-20T21:52:25;11.0;;;10.0;;
21120;SDS011;12519;43.318;21.898;2023-07-20T21:57:02;12.0;;;10.0;;
21120;SDS011;12519;43.318;21.898;2023-07-20T22:01:39;12.0;;;10.0;;
21120;SDS011;12519;43.318;21.898;2023-07-20T22:06:16;14.0;;;11.0;;
21120;SDS011;12519;43.318;21.898;2023-07-20T22:10:53;14.0;;;11.0;;
21120;SDS011;12519;43.318;21.898;2023-07-20T22:15:30;14.0;;;11.0;;
21120;SDS011;12519;43.318;21.898;2023-07-20T22:20:08;13.0;;;11.0;;
21120;SDS011;12519;43.318;21.898;2023-07-20T22:24:47;13.0;;;11.0;;
21120;SDS011;12519;43.318;21.898;2023-07-20T22:29:23;12.0;;;11.0;;
21120;SDS011;12519;43.318;21.898;2023-07-20T22:34:00;12.0;;;11.0;;
21120;SDS011;12519;43.318;21.898;2023-07-20T22:38:36;12.0;;;11.0;;
21120;SDS011;12519;43.318;21.898;2023-07-20T22:43:12;12.0;;;11.0;;
21120;SDS011;12519;43.318;21.898;2023-07-20T22:47:48;12.0;;;11.0;;
21120;SDS011;12519;43.318;21.898;2023-07-20T22:52:25;12.0;;;11.0;;
21120;SDS011;12519;43.318;21.898;2023-07-20T22:57:03;12.0;;;11.0;;
21120;SDS011;12519;43.318;21.898;2023-07-20T23:01:41;12.0;;;11.0;;
21120;SDS011;12519;43.318;21.898;2023-07-20T23:06:17;12.0;;;11.0;;
21120;SDS011;12519;43.318;21.898;2023-07-20T23:10:54;12.0;;;11.0;;
21120;SDS011;12519;43.318;21.898;2023-07-20T23:15:31;12.0;;;11.0;;
21120;SDS011;12519;43.318;21.898;2023-07-20T23:20:10;12.0;;;11.0;;
21120;SDS011;12519;43.318;21.898;2023-07-20T23:24:48;12.0;;;11.0;;
21120;SDS011;12519;43.318;21.898;2023-07-20T23:29:24;13.0;;;11.0;;
21120;SDS011;12519;43.318;21.898;2023-07-20T23:34:01;13.0;;;11.0;;
21120;SDS011;12519;43.318;21.898;2023-07-20T23:38:38;13.0;;;11.0;;
21120;SDS011;12519;43.318;21.898;2023-07-20T23:43:15;13.0;;;11.0;;
21120;SDS011;12519;43.318;21.898;2023-07-20T23:47:52;13.0;;;11.0;;
21120;SDS011;12519;43.318;21.898;2023-07-20T23:52:28;13.0;;;11.0;;
21120;SDS011;12519;43.318;21.898;2023-07-20T23:57:05;12.0;;;11.0;;
